createdAt,value
2018-11-10T00:02:23.695Z,12.50
2018-11-10T00:04:52.206Z,12.60
2018-11-10T00:07:20.737Z,12.60
2018-11-10T00:15:29.982Z,12.60
2018-11-10T00:18:01.465Z,12.60
2018-11-10T00:20:29.993Z,12.60
2018-11-10T00:22:58.468Z,12.60
2018-11-10T00:28:17.188Z,12.60
2018-11-10T00:30:45.692Z,12.60
2018-11-10T00:33:14.220Z,12.70
2018-11-10T00:35:42.899Z,12.70
2018-11-10T00:38:11.585Z,12.70
2018-11-10T00:40:40.187Z,12.70
2018-11-10T00:43:08.699Z,12.70
2018-11-10T00:45:37.226Z,12.80
2018-11-10T00:48:06.261Z,12.80
2018-11-10T00:50:34.845Z,12.90
2018-11-10T00:53:03.354Z,12.90
2018-11-10T00:55:31.930Z,12.90
2018-11-10T00:58:00.452Z,12.90
2018-11-10T01:00:29.077Z,12.90
2018-11-10T01:02:57.604Z,13.00
2018-11-10T01:05:32.827Z,13.00
2018-11-10T01:08:01.364Z,13.00
2018-11-10T01:10:29.869Z,13.10
2018-11-10T01:12:58.348Z,13.10
2018-11-10T01:15:26.858Z,13.10
2018-11-10T01:17:55.411Z,13.00
2018-11-10T01:20:24.110Z,13.00
2018-11-10T01:22:52.657Z,12.90
2018-11-10T01:25:21.152Z,12.90
2018-11-10T01:27:49.702Z,12.90
2018-11-10T01:30:18.300Z,12.90
2018-11-10T01:32:47.000Z,12.80
2018-11-10T01:35:15.977Z,12.80
2018-11-10T01:37:44.574Z,12.80
2018-11-10T01:40:14.214Z,12.80
2018-11-10T01:42:43.293Z,12.80
2018-11-10T01:45:14.276Z,12.90
2018-11-10T01:47:43.486Z,12.90
2018-11-10T01:50:12.146Z,12.90
2018-11-10T01:52:41.237Z,12.90
2018-11-10T01:55:10.561Z,12.90
2018-11-10T01:57:39.634Z,12.90
2018-11-10T02:00:12.804Z,12.90
2018-11-10T02:02:41.662Z,12.90
2018-11-10T02:05:10.240Z,12.90
2018-11-10T02:07:38.817Z,13.00
2018-11-10T02:10:08.666Z,12.90
2018-11-10T02:12:37.197Z,13.00
2018-11-10T02:15:06.867Z,13.00
2018-11-10T02:17:35.418Z,13.00
2018-11-10T02:20:04.080Z,13.00
2018-11-10T02:22:32.672Z,13.00
2018-11-10T02:25:01.241Z,13.00
2018-11-10T02:27:29.797Z,13.00
2018-11-10T02:29:58.324Z,13.00
2018-11-10T02:32:26.834Z,13.00
2018-11-10T02:34:55.346Z,13.00
2018-11-10T02:37:23.995Z,13.10
2018-11-10T02:39:52.495Z,13.10
2018-11-10T02:42:21.039Z,13.10
2018-11-10T02:44:49.821Z,13.20
2018-11-10T02:47:18.344Z,13.20
2018-11-10T02:49:46.859Z,13.30
2018-11-10T02:52:15.405Z,13.30
2018-11-10T02:54:43.931Z,13.30
2018-11-10T02:57:12.426Z,13.40
2018-11-10T02:59:40.954Z,13.40
2018-11-10T03:02:09.432Z,13.40
2018-11-10T03:04:37.921Z,13.40
2018-11-10T03:07:06.486Z,13.40
2018-11-10T03:09:35.015Z,13.50
2018-11-10T03:12:03.651Z,13.60
2018-11-10T03:14:32.209Z,13.60
2018-11-10T03:17:00.727Z,13.60
2018-11-10T03:19:29.222Z,13.70
2018-11-10T03:21:57.746Z,13.70
2018-11-10T03:24:26.334Z,13.80
2018-11-10T03:26:54.786Z,13.80
2018-11-10T03:29:23.327Z,13.80
2018-11-10T03:31:51.878Z,13.80
2018-11-10T03:34:20.326Z,13.80
2018-11-10T03:36:48.857Z,13.80
2018-11-10T03:39:17.546Z,13.80
2018-11-10T03:41:46.079Z,13.80
2018-11-10T03:44:14.500Z,13.90
2018-11-10T03:46:43.053Z,13.90
2018-11-10T03:49:11.623Z,13.90
2018-11-10T03:51:40.175Z,14.00
2018-11-10T03:54:08.693Z,14.00
2018-11-10T03:56:37.141Z,14.00
2018-11-10T03:59:05.850Z,14.00
2018-11-10T04:01:34.598Z,14.10
2018-11-10T04:04:03.109Z,14.10
2018-11-10T04:06:31.583Z,14.10
2018-11-10T04:09:00.084Z,14.20
2018-11-10T04:11:28.529Z,14.20
2018-11-10T04:13:57.033Z,14.20
2018-11-10T04:16:25.465Z,14.20
2018-11-10T04:18:53.945Z,14.20
2018-11-10T04:21:22.404Z,14.20
2018-11-10T04:23:50.847Z,14.20
2018-11-10T04:26:21.142Z,14.30
2018-11-10T04:28:49.652Z,14.20
2018-11-10T04:31:18.080Z,14.30
2018-11-10T04:33:46.579Z,14.30
2018-11-10T04:36:15.049Z,14.20
2018-11-10T04:38:43.581Z,14.30
2018-11-10T04:41:12.051Z,14.30
2018-11-10T04:43:40.501Z,14.30
2018-11-10T04:46:09.037Z,14.40
2018-11-10T04:48:37.482Z,14.40
2018-11-10T04:51:06.206Z,14.40
2018-11-10T04:53:34.679Z,14.40
2018-11-10T04:56:03.152Z,14.40
2018-11-10T04:58:31.768Z,14.40
2018-11-10T05:01:00.234Z,14.50
2018-11-10T05:03:28.724Z,14.50
2018-11-10T05:05:57.190Z,14.40
2018-11-10T05:08:25.632Z,14.40
2018-11-10T05:10:54.113Z,14.40
2018-11-10T05:13:22.536Z,14.40
2018-11-10T05:15:51.059Z,14.40
2018-11-10T05:24:00.404Z,14.40
2018-11-10T05:26:28.890Z,14.30
2018-11-10T05:28:57.384Z,14.30
2018-11-10T05:34:16.424Z,14.20
2018-11-10T05:36:44.924Z,14.20
2018-11-10T05:42:03.945Z,14.10
2018-11-10T05:44:32.421Z,13.90
2018-11-10T05:47:00.939Z,13.60
2018-11-10T05:49:50.876Z,13.40
2018-11-10T05:52:19.357Z,13.20
2018-11-10T05:54:47.899Z,13.10
2018-11-10T05:57:16.613Z,13.00
2018-11-10T05:59:52.751Z,12.90
2018-11-10T06:02:21.240Z,12.60
2018-11-10T06:04:49.694Z,12.50
2018-11-10T06:12:59.026Z,12.30
2018-11-10T06:15:27.769Z,12.20
2018-11-10T06:17:56.314Z,12.10
2018-11-10T06:20:24.936Z,12.00
2018-11-10T06:22:53.394Z,11.90
2018-11-10T06:25:21.832Z,11.90
2018-11-10T06:27:50.337Z,11.80
2018-11-10T06:30:18.785Z,11.70
2018-11-10T06:32:47.364Z,11.60
2018-11-10T06:35:15.869Z,11.50
2018-11-10T06:37:44.411Z,11.40
2018-11-10T06:40:13.870Z,11.40
2018-11-10T06:42:43.014Z,11.30
2018-11-10T06:45:11.522Z,11.20
2018-11-10T06:47:40.036Z,11.20
2018-11-10T06:50:10.002Z,11.20
2018-11-10T06:52:38.529Z,11.20
2018-11-10T06:55:07.970Z,11.20
2018-11-10T06:57:36.462Z,11.10
2018-11-10T07:00:05.285Z,11.10
2018-11-10T07:02:33.733Z,11.10
2018-11-10T07:05:02.232Z,11.10
2018-11-10T07:07:30.764Z,11.10
2018-11-10T07:09:59.279Z,11.10
2018-11-10T07:12:27.797Z,11.10
2018-11-10T07:14:56.240Z,11.10
2018-11-10T07:17:24.734Z,11.10
2018-11-10T07:19:53.142Z,11.10
2018-11-10T07:22:21.613Z,11.10
2018-11-10T07:24:50.191Z,11.10
2018-11-10T07:27:18.727Z,11.10
2018-11-10T07:29:47.413Z,11.10
2018-11-10T07:32:15.847Z,11.10
2018-11-10T07:34:44.728Z,11.10
2018-11-10T07:37:19.896Z,11.10
2018-11-10T07:39:48.356Z,11.10
2018-11-10T07:42:17.861Z,11.10
2018-11-10T07:44:46.812Z,11.10
2018-11-10T07:47:16.032Z,11.10
2018-11-10T07:49:44.686Z,11.20
2018-11-10T07:52:13.180Z,11.20
2018-11-10T07:54:41.767Z,11.20
2018-11-10T07:57:10.267Z,11.10
2018-11-10T07:59:39.139Z,11.10
2018-11-10T08:02:07.646Z,11.10
2018-11-10T08:04:36.198Z,11.10
2018-11-10T08:07:05.375Z,11.10
2018-11-10T08:09:35.075Z,11.10
2018-11-10T08:12:03.737Z,11.10
2018-11-10T08:14:32.296Z,11.10
2018-11-10T08:17:00.921Z,11.20
2018-11-10T08:19:29.515Z,11.20
2018-11-10T08:21:57.976Z,11.20
2018-11-10T08:24:26.452Z,11.20
2018-11-10T08:26:55.378Z,11.20
2018-11-10T08:29:24.095Z,11.20
2018-11-10T08:31:52.544Z,11.20
2018-11-10T08:34:21.020Z,11.20
2018-11-10T08:36:49.507Z,11.20
2018-11-10T08:39:17.985Z,11.30
2018-11-10T08:41:46.489Z,11.20
2018-11-10T08:44:15.712Z,11.30
2018-11-10T08:46:44.230Z,11.30
2018-11-10T08:49:12.737Z,11.30
2018-11-10T08:51:41.190Z,11.30
2018-11-10T08:54:09.748Z,11.30
2018-11-10T08:56:38.157Z,11.40
2018-11-10T08:59:06.699Z,11.40
2018-11-10T09:01:35.293Z,11.40
2018-11-10T09:04:03.892Z,11.40
2018-11-10T09:06:32.365Z,11.40
2018-11-10T09:09:00.893Z,11.50
2018-11-10T09:11:29.371Z,11.50
2018-11-10T09:13:57.950Z,11.50
2018-11-10T09:16:26.669Z,11.40
2018-11-10T09:18:55.239Z,11.50
2018-11-10T09:21:23.813Z,11.50
2018-11-10T09:23:52.403Z,11.50
2018-11-10T09:26:20.942Z,11.50
2018-11-10T09:28:50.338Z,11.50
2018-11-10T09:31:19.043Z,11.50
2018-11-10T09:33:48.679Z,11.50
2018-11-10T09:36:17.246Z,11.60
2018-11-10T09:38:45.810Z,11.70
2018-11-10T09:41:14.392Z,11.80
2018-11-10T09:43:42.981Z,11.80
2018-11-10T09:46:13.448Z,11.90
2018-11-10T09:48:42.101Z,11.90
2018-11-10T09:51:10.909Z,12.00
2018-11-10T09:53:39.403Z,12.10
2018-11-10T09:56:07.947Z,12.20
2018-11-10T09:58:36.548Z,12.30
2018-11-10T10:01:05.446Z,12.30
2018-11-10T10:03:34.084Z,12.40
2018-11-10T10:06:02.633Z,12.50
2018-11-10T10:08:31.143Z,12.60
2018-11-10T10:10:59.749Z,12.60
2018-11-10T10:13:28.318Z,12.70
2018-11-10T10:15:57.042Z,12.70
2018-11-10T10:18:25.569Z,12.80
2018-11-10T10:20:54.100Z,12.80
2018-11-10T10:23:22.654Z,12.70
2018-11-10T10:25:53.186Z,12.70
2018-11-10T10:28:37.059Z,12.70
2018-11-10T10:31:05.544Z,12.70
2018-11-10T10:33:34.259Z,12.70
2018-11-10T10:36:02.773Z,12.70
2018-11-10T10:38:31.417Z,12.70
2018-11-10T10:40:59.972Z,12.60
2018-11-10T10:43:28.577Z,12.60
2018-11-10T10:45:57.323Z,12.60
2018-11-10T10:48:25.922Z,12.60
2018-11-10T10:50:54.492Z,12.50
2018-11-10T10:53:23.021Z,12.40
2018-11-10T10:55:53.616Z,12.40
2018-11-10T10:58:22.056Z,12.40
2018-11-10T11:00:56.008Z,12.40
2018-11-10T11:03:29.959Z,12.30
2018-11-10T11:05:58.781Z,12.40
2018-11-10T11:08:27.596Z,12.40
2018-11-10T11:10:56.157Z,12.40
2018-11-10T11:13:24.702Z,12.40
2018-11-10T11:15:53.433Z,12.50
2018-11-10T11:18:21.908Z,12.50
2018-11-10T11:20:50.453Z,12.50
2018-11-10T11:23:19.211Z,12.50
2018-11-10T11:25:47.804Z,12.50
2018-11-10T11:28:16.525Z,12.40
2018-11-10T11:30:45.033Z,12.40
2018-11-10T11:33:13.879Z,12.50
2018-11-10T11:35:42.489Z,12.50
2018-11-10T11:38:11.103Z,12.50
2018-11-10T11:40:39.827Z,12.40
2018-11-10T11:43:08.370Z,12.40
2018-11-10T11:45:36.959Z,12.40
2018-11-10T11:48:05.884Z,12.40
2018-11-10T11:50:34.488Z,12.40
2018-11-10T11:53:03.134Z,12.40
2018-11-10T11:55:31.876Z,12.40
2018-11-10T11:58:00.606Z,12.40
2018-11-10T12:00:29.098Z,12.40
2018-11-10T12:02:57.783Z,12.40
2018-11-10T12:05:26.352Z,12.40
2018-11-10T12:07:55.014Z,12.40
2018-11-10T12:10:23.615Z,12.30
2018-11-10T12:12:52.281Z,12.30
2018-11-10T12:15:20.917Z,12.30
2018-11-10T12:17:49.486Z,12.40
2018-11-10T12:20:18.262Z,12.40
2018-11-10T12:22:46.877Z,12.40
2018-11-10T12:25:15.524Z,12.40
2018-11-10T12:27:44.665Z,12.40
2018-11-10T12:30:13.451Z,12.40
2018-11-10T12:32:42.257Z,12.40
2018-11-10T12:35:12.197Z,12.40
2018-11-10T12:37:46.765Z,12.40
2018-11-10T12:40:15.325Z,12.40
2018-11-10T12:42:43.876Z,12.40
2018-11-10T12:45:13.513Z,12.40
2018-11-10T12:47:42.694Z,12.40
2018-11-10T12:50:12.671Z,12.40
2018-11-10T12:52:42.421Z,12.40
2018-11-10T12:55:12.358Z,12.50
2018-11-10T13:06:12.045Z,12.50
2018-11-10T13:08:40.542Z,12.60
2018-11-10T13:11:09.183Z,12.60
2018-11-10T13:13:37.730Z,12.60
2018-11-10T13:16:06.210Z,12.60
2018-11-10T13:18:51.874Z,12.70
2018-11-10T13:21:40.679Z,12.70
2018-11-10T13:24:09.526Z,12.70
2018-11-10T13:26:38.074Z,12.80
2018-11-10T13:29:07.191Z,12.80
2018-11-10T13:31:35.774Z,12.80
2018-11-10T13:34:04.643Z,12.80
2018-11-10T13:36:33.208Z,12.90
2018-11-10T13:39:01.829Z,12.90
2018-11-10T13:41:30.400Z,12.90
2018-11-10T13:43:59.110Z,12.90
2018-11-10T13:49:17.892Z,12.90
2018-11-10T13:51:47.662Z,12.90
2018-11-10T13:57:06.614Z,12.90
2018-11-10T13:59:52.149Z,12.90
2018-11-10T14:02:20.734Z,12.90
2018-11-10T14:04:49.229Z,12.80
2018-11-10T14:10:09.831Z,12.90
2018-11-10T14:12:45.048Z,12.80
2018-11-10T14:15:13.570Z,12.90
2018-11-10T14:17:42.585Z,12.80
2018-11-10T14:20:13.941Z,12.80
2018-11-10T14:22:42.463Z,12.80
2018-11-10T14:25:12.995Z,12.80
2018-11-10T14:27:53.166Z,12.80
2018-11-10T14:33:12.078Z,12.80
2018-11-10T14:35:40.633Z,12.80
2018-11-10T14:38:09.216Z,12.70
2018-11-10T14:40:37.757Z,12.70
2018-11-10T14:43:06.332Z,12.70
2018-11-10T14:45:34.786Z,12.70
2018-11-10T14:48:03.282Z,12.80
2018-11-10T14:50:31.776Z,12.70
2018-11-10T14:53:00.386Z,12.70
2018-11-10T14:55:28.833Z,12.70
2018-11-10T14:57:57.304Z,12.70
2018-11-10T15:00:27.298Z,12.70
2018-11-10T15:02:55.860Z,12.70
2018-11-10T15:05:24.423Z,12.70
2018-11-10T15:07:53.785Z,12.70
2018-11-10T15:10:22.303Z,12.70
2018-11-10T15:12:50.830Z,12.70
2018-11-10T15:15:19.822Z,12.70
2018-11-10T15:17:48.593Z,12.80
2018-11-10T15:20:18.248Z,12.80
2018-11-10T15:22:47.059Z,12.80
2018-11-10T15:25:17.069Z,12.80
2018-11-10T15:27:53.156Z,12.80
2018-11-10T15:30:22.114Z,12.70
2018-11-10T15:32:53.660Z,12.80
2018-11-10T15:38:13.606Z,12.80
2018-11-10T15:40:42.118Z,12.80
2018-11-10T15:43:10.679Z,12.70
2018-11-10T15:45:39.235Z,12.70
2018-11-10T15:48:07.784Z,12.70
2018-11-10T15:50:52.307Z,12.70
2018-11-10T15:53:20.962Z,12.60
2018-11-10T15:55:53.472Z,12.60
2018-11-10T16:04:02.531Z,12.60
2018-11-10T16:06:31.001Z,12.60
2018-11-10T16:08:59.619Z,12.60
2018-11-10T16:11:28.095Z,12.60
2018-11-10T16:13:56.598Z,12.70
2018-11-10T16:16:25.277Z,12.70
2018-11-10T16:18:53.740Z,12.60
2018-11-10T16:21:22.278Z,12.70
2018-11-10T16:23:53.870Z,12.60
2018-11-10T16:26:22.426Z,12.60
2018-11-10T16:28:51.047Z,12.60
2018-11-10T16:31:19.598Z,12.70
2018-11-10T16:33:53.167Z,12.70
2018-11-10T16:36:22.600Z,12.70
2018-11-10T16:38:53.158Z,12.70
2018-11-10T16:41:21.710Z,12.70
2018-11-10T16:43:53.232Z,12.60
2018-11-10T16:46:21.678Z,12.70
2018-11-10T16:48:50.153Z,12.70
2018-11-10T16:51:18.620Z,12.70
2018-11-10T16:53:52.571Z,12.60
2018-11-10T16:56:21.078Z,12.70
2018-11-10T16:58:49.591Z,12.70
2018-11-10T17:01:18.125Z,12.70
2018-11-10T17:03:53.118Z,12.70
2018-11-10T17:06:21.650Z,12.70
2018-11-10T17:08:54.176Z,12.70
2018-11-10T17:17:00.890Z,12.70
2018-11-10T17:19:35.793Z,12.60
2018-11-10T17:22:04.691Z,12.60
2018-11-10T17:24:51.634Z,12.60
2018-11-10T17:35:53.270Z,12.60
2018-11-10T17:38:21.879Z,12.60
2018-11-10T17:40:53.273Z,12.60
2018-11-10T17:45:55.675Z,12.70
2018-11-10T17:51:14.600Z,12.70
2018-11-10T17:53:43.108Z,12.70
2018-11-10T17:56:11.655Z,12.70
2018-11-10T17:58:40.252Z,12.70
2018-11-10T18:01:08.895Z,12.70
2018-11-10T18:03:37.508Z,12.70
2018-11-10T18:06:05.994Z,12.70
2018-11-10T18:08:50.886Z,12.70
2018-11-10T18:11:19.363Z,12.70
2018-11-10T18:13:53.968Z,12.70
2018-11-10T18:16:22.491Z,12.60
2018-11-10T18:18:51.165Z,12.60
2018-11-10T18:21:19.661Z,12.60
2018-11-10T18:23:53.227Z,12.70
2018-11-10T18:26:42.097Z,12.70
2018-11-10T18:29:10.626Z,12.70
2018-11-10T18:31:52.306Z,12.70
2018-11-10T18:34:20.831Z,12.70
2018-11-10T18:36:49.414Z,12.70
2018-11-10T18:39:18.076Z,12.70
2018-11-10T18:41:46.577Z,12.70
2018-11-10T18:44:15.096Z,12.70
2018-11-10T18:46:43.698Z,12.70
2018-11-10T18:49:12.188Z,12.70
2018-11-10T18:51:41.593Z,12.70
2018-11-10T18:54:10.117Z,12.70
2018-11-10T18:56:38.757Z,12.70
2018-11-10T18:59:07.343Z,12.70
2018-11-10T19:01:35.868Z,12.70
2018-11-10T19:04:04.523Z,12.70
2018-11-10T19:06:37.148Z,12.70
2018-11-10T19:09:08.702Z,12.70
2018-11-10T19:11:37.269Z,12.70
2018-11-10T19:14:05.864Z,12.70
2018-11-10T19:16:34.440Z,12.70
2018-11-10T19:19:03.013Z,12.70
2018-11-10T19:21:31.903Z,12.70
2018-11-10T19:24:00.588Z,12.70
2018-11-10T19:26:29.177Z,12.70
2018-11-10T19:28:57.834Z,12.60
2018-11-10T19:31:26.323Z,12.70
2018-11-10T19:33:54.998Z,12.70
2018-11-10T19:36:23.478Z,12.70
2018-11-10T19:38:52.061Z,12.70
2018-11-10T19:41:20.756Z,12.70
2018-11-10T19:43:49.472Z,12.60
2018-11-10T19:46:18.237Z,12.60
2018-11-10T19:48:46.806Z,12.60
2018-11-10T19:51:16.187Z,12.60
2018-11-10T19:53:44.778Z,12.60
2018-11-10T19:56:13.316Z,12.60
2018-11-10T19:58:41.890Z,12.60
2018-11-10T20:01:11.212Z,12.60
2018-11-10T20:03:40.377Z,12.60
2018-11-10T20:06:08.920Z,12.60
2018-11-10T20:08:37.455Z,12.60
2018-11-10T20:11:06.142Z,12.60
2018-11-10T20:13:34.554Z,12.60
2018-11-10T20:16:03.122Z,12.60
2018-11-10T20:18:31.676Z,12.60
2018-11-10T20:21:00.318Z,12.60
2018-11-10T20:23:28.935Z,12.60
2018-11-10T20:25:57.615Z,12.60
2018-11-10T20:28:26.179Z,12.60
2018-11-10T20:30:54.651Z,12.60
2018-11-10T20:36:02.430Z,12.60
2018-11-10T20:38:30.942Z,12.60
2018-11-10T20:40:59.736Z,12.60
2018-11-10T20:43:28.202Z,12.60
2018-11-10T20:45:56.781Z,12.60
2018-11-10T20:48:25.307Z,12.60
2018-11-10T20:50:53.931Z,12.60
2018-11-10T20:53:22.387Z,12.60
2018-11-10T20:55:50.907Z,12.60
2018-11-10T20:58:19.425Z,12.60
2018-11-10T21:00:48.027Z,12.60
2018-11-10T21:03:16.455Z,12.60
2018-11-10T21:05:45.015Z,12.60
2018-11-10T21:08:13.475Z,12.60
2018-11-10T21:10:41.999Z,12.60
2018-11-10T21:13:10.503Z,12.60
2018-11-10T21:15:39.268Z,12.50
2018-11-10T21:18:07.736Z,12.50
2018-11-10T21:20:36.217Z,12.50
2018-11-10T21:23:04.970Z,12.50
2018-11-10T21:25:33.432Z,12.60
2018-11-10T21:28:02.013Z,12.60
2018-11-10T21:30:30.564Z,12.50
2018-11-10T21:32:59.112Z,12.50
2018-11-10T21:35:35.199Z,12.50
2018-11-10T21:38:03.822Z,12.50
2018-11-10T21:40:32.459Z,12.50
2018-11-10T21:43:01.100Z,12.50
2018-11-10T21:45:30.445Z,12.50
2018-11-10T21:47:58.976Z,12.50
2018-11-10T21:50:27.661Z,12.50
2018-11-10T21:52:56.194Z,12.50
2018-11-10T21:58:15.033Z,12.50
2018-11-10T22:00:43.486Z,12.50
2018-11-10T22:03:12.077Z,12.50
2018-11-10T22:05:41.273Z,12.40
2018-11-10T22:08:09.815Z,12.50
2018-11-10T22:10:38.367Z,12.40
2018-11-10T22:13:06.960Z,12.40
2018-11-10T22:15:47.452Z,12.40
2018-11-10T22:18:15.993Z,12.40
2018-11-10T22:20:51.706Z,12.40
2018-11-10T22:23:20.445Z,12.40
2018-11-10T22:25:49.010Z,12.40
2018-11-10T22:28:17.712Z,12.40
2018-11-10T22:30:52.750Z,12.30
2018-11-10T22:33:21.249Z,12.30
2018-11-10T22:35:53.863Z,12.30
2018-11-10T22:38:22.399Z,12.30
2018-11-10T22:40:53.754Z,12.30
2018-11-10T22:43:22.241Z,12.30
2018-11-10T22:45:50.734Z,12.20
2018-11-10T22:48:19.231Z,12.30
2018-11-10T22:50:47.697Z,12.20
2018-11-10T22:53:22.680Z,12.20
2018-11-10T22:55:51.188Z,12.20
2018-11-10T22:58:19.677Z,12.20
2018-11-10T23:00:53.501Z,12.10
2018-11-10T23:03:22.033Z,12.10
2018-11-10T23:05:50.470Z,12.10
2018-11-10T23:08:18.949Z,12.10
2018-11-10T23:10:47.435Z,12.10
2018-11-10T23:13:15.942Z,12.10
2018-11-10T23:15:44.455Z,12.10
2018-11-10T23:18:13.008Z,12.00
2018-11-10T23:20:41.533Z,12.10
2018-11-10T23:23:10.027Z,12.10
2018-11-10T23:25:38.528Z,12.10
2018-11-10T23:28:07.149Z,12.00
2018-11-10T23:30:35.657Z,12.00
2018-11-10T23:33:04.147Z,12.00
2018-11-10T23:35:38.613Z,12.00
2018-11-10T23:38:07.302Z,11.90
2018-11-10T23:40:35.772Z,11.90
2018-11-10T23:43:04.274Z,11.90
2018-11-10T23:45:32.693Z,11.90
2018-11-10T23:48:01.151Z,11.80
2018-11-10T23:50:29.639Z,11.80
2018-11-10T23:52:58.095Z,11.80
2018-11-10T23:55:26.557Z,11.80
2018-11-10T23:57:55.036Z,11.70
